createdAt,value
2019-01-23T00:00:46.587Z,35.25
2019-01-23T00:03:15.053Z,35.83
2019-01-23T00:05:43.451Z,35.00
2019-01-23T00:08:12.207Z,33.05
2019-01-23T00:10:40.675Z,36.03
2019-01-23T00:13:09.138Z,35.52
2019-01-23T00:15:37.850Z,34.15
2019-01-23T00:18:06.314Z,35.17
2019-01-23T00:20:34.724Z,32.45
2019-01-23T00:23:03.116Z,33.40
2019-01-23T00:25:31.529Z,34.65
2019-01-23T00:27:59.922Z,34.67
2019-01-23T00:30:28.314Z,33.20
2019-01-23T00:32:56.722Z,34.65
2019-01-23T00:35:25.115Z,36.17
2019-01-23T00:37:53.524Z,34.15
2019-01-23T00:40:21.918Z,34.83
2019-01-23T00:42:50.333Z,35.33
2019-01-23T00:45:19.009Z,36.68
2019-01-23T00:47:47.699Z,37.45
2019-01-23T00:50:16.484Z,34.10
2019-01-23T00:52:45.131Z,34.27
2019-01-23T00:55:32.859Z,35.30
2019-01-23T00:58:01.268Z,35.83
2019-01-23T01:00:30.194Z,34.38
2019-01-23T01:02:58.576Z,38.50
2019-01-23T01:05:46.565Z,37.42
2019-01-23T01:08:15.279Z,36.28
2019-01-23T01:10:43.674Z,36.20
2019-01-23T01:13:12.341Z,36.85
2019-01-23T01:15:41.131Z,37.08
2019-01-23T01:18:09.816Z,35.38
2019-01-23T01:20:38.211Z,35.15
2019-01-23T01:23:06.612Z,36.80
2019-01-23T01:25:35.016Z,36.83
2019-01-23T01:28:03.411Z,36.65
2019-01-23T01:30:32.123Z,36.53
2019-01-23T01:33:00.590Z,37.33
2019-01-23T01:35:28.994Z,34.92
2019-01-23T01:37:57.678Z,36.70
2019-01-23T01:40:26.091Z,36.08
2019-01-23T01:42:54.834Z,36.30
2019-01-23T01:45:23.234Z,39.73
2019-01-23T01:47:51.641Z,39.03
2019-01-23T01:50:59.936Z,34.58
2019-01-23T01:53:29.329Z,37.23
2019-01-23T01:55:58.460Z,35.80
2019-01-23T01:58:26.864Z,36.48
2019-01-23T02:00:55.257Z,36.93
2019-01-23T02:03:23.672Z,34.80
2019-01-23T02:05:52.062Z,37.65
2019-01-23T02:08:20.704Z,36.08
2019-01-23T02:10:49.170Z,35.92
2019-01-23T02:13:17.565Z,38.83
2019-01-23T02:15:45.974Z,37.45
2019-01-23T02:18:14.371Z,35.00
2019-01-23T02:20:42.775Z,34.18
2019-01-23T02:23:11.413Z,35.10
2019-01-23T02:25:39.822Z,36.60
2019-01-23T02:28:08.558Z,38.55
2019-01-23T02:30:36.956Z,36.93
2019-01-23T02:35:40.939Z,36.30
2019-01-23T02:38:09.342Z,40.95
2019-01-23T02:40:38.026Z,37.93
2019-01-23T02:43:06.713Z,42.20
2019-01-23T02:45:35.397Z,40.85
2019-01-23T02:48:03.864Z,40.40
2019-01-23T02:50:32.578Z,40.58
2019-01-23T02:53:01.249Z,40.05
2019-01-23T02:55:29.660Z,42.20
2019-01-23T02:57:58.316Z,40.50
2019-01-23T03:00:26.722Z,40.38
2019-01-23T03:02:55.115Z,38.55
2019-01-23T03:05:23.529Z,42.70
2019-01-23T03:07:52.077Z,40.40
2019-01-23T03:11:00.627Z,41.33
2019-01-23T03:13:29.042Z,42.55
2019-01-23T03:15:57.454Z,40.33
2019-01-23T03:18:26.111Z,39.23
2019-01-23T03:20:54.789Z,37.90
2019-01-23T03:23:23.194Z,39.88
2019-01-23T03:25:51.586Z,39.50
2019-01-23T03:28:19.995Z,39.03
2019-01-23T03:30:48.393Z,39.40
2019-01-23T03:33:16.813Z,38.92
2019-01-23T03:35:45.212Z,42.00
2019-01-23T03:38:13.852Z,39.27
2019-01-23T03:40:42.536Z,37.10
2019-01-23T03:43:30.586Z,38.90
2019-01-23T03:45:58.999Z,38.90
2019-01-23T03:48:27.399Z,38.45
2019-01-23T03:50:56.118Z,40.95
2019-01-23T03:53:24.553Z,41.85
2019-01-23T03:56:32.835Z,40.35
2019-01-23T03:59:01.500Z,41.18
2019-01-23T04:01:29.916Z,40.38
2019-01-23T04:03:58.311Z,41.28
2019-01-23T04:06:26.729Z,43.40
2019-01-23T04:08:55.423Z,39.42
2019-01-23T04:11:23.824Z,42.38
2019-01-23T04:14:11.571Z,42.08
2019-01-23T04:16:39.974Z,43.73
2019-01-23T04:19:08.383Z,43.02
2019-01-23T04:21:36.783Z,42.90
2019-01-23T04:24:45.105Z,43.08
2019-01-23T04:27:33.130Z,41.05
2019-01-23T04:30:01.559Z,44.10
2019-01-23T04:32:30.294Z,43.40
2019-01-23T04:34:58.696Z,43.65
2019-01-23T04:37:27.170Z,41.95
2019-01-23T04:39:55.572Z,42.15
2019-01-23T04:42:24.323Z,43.17
2019-01-23T04:44:53.013Z,43.65
2019-01-23T04:47:40.765Z,44.60
2019-01-23T04:50:49.069Z,44.53
2019-01-23T04:55:56.991Z,43.68
2019-01-23T04:58:25.407Z,44.03
2019-01-23T05:00:54.144Z,43.65
2019-01-23T05:03:22.560Z,43.23
2019-01-23T05:05:50.955Z,43.08
2019-01-23T05:08:38.695Z,39.73
2019-01-23T05:11:07.133Z,41.10
2019-01-23T05:13:35.518Z,44.30
2019-01-23T05:16:03.931Z,45.15
2019-01-23T05:18:32.340Z,43.20
2019-01-23T05:21:01.040Z,43.60
2019-01-23T05:23:29.728Z,43.52
2019-01-23T05:25:58.195Z,45.20
2019-01-23T05:28:26.593Z,42.60
2019-01-23T05:30:55.270Z,40.60
2019-01-23T05:33:23.667Z,41.77
2019-01-23T05:35:52.084Z,43.65
2019-01-23T05:38:20.485Z,44.25
2019-01-23T05:40:48.879Z,48.08
2019-01-23T05:43:17.290Z,46.90
2019-01-23T05:45:45.951Z,44.08
2019-01-23T05:48:33.950Z,43.15
2019-01-23T05:51:02.675Z,45.08
2019-01-23T05:53:31.071Z,44.93
2019-01-23T05:55:59.479Z,45.08
2019-01-23T05:58:28.123Z,44.38
2019-01-23T06:00:56.543Z,48.30
2019-01-23T06:03:25.031Z,46.98
2019-01-23T06:05:53.403Z,44.50
2019-01-23T06:08:21.813Z,48.35
2019-01-23T06:10:50.449Z,46.10
2019-01-23T06:13:18.858Z,45.88
2019-01-23T06:15:47.558Z,44.45
2019-01-23T06:18:16.283Z,46.60
2019-01-23T06:20:44.963Z,46.00
2019-01-23T06:23:13.380Z,45.78
2019-01-23T06:25:41.780Z,46.95
2019-01-23T06:28:10.178Z,48.02
2019-01-23T06:30:38.591Z,44.85
2019-01-23T06:33:18.925Z,46.40
2019-01-23T06:35:47.622Z,50.25
2019-01-23T06:38:16.311Z,49.35
2019-01-23T06:40:44.726Z,47.43
2019-01-23T06:43:13.122Z,45.05
2019-01-23T06:45:41.755Z,45.08
2019-01-23T06:48:10.169Z,50.55
2019-01-23T06:50:38.561Z,48.38
2019-01-23T06:53:13.812Z,47.17
2019-01-23T06:55:37.424Z,45.65
2019-01-23T06:58:05.819Z,47.55
2019-01-23T07:00:34.237Z,46.20
2019-01-23T07:03:02.708Z,45.80
2019-01-23T07:05:31.386Z,47.38
2019-01-23T07:08:00.042Z,45.98
2019-01-23T07:10:28.693Z,45.85
2019-01-23T07:12:57.115Z,46.30
2019-01-23T07:15:25.793Z,49.15
2019-01-23T07:17:54.189Z,45.65
2019-01-23T07:21:02.500Z,46.08
2019-01-23T07:23:30.898Z,48.13
2019-01-23T07:26:18.654Z,47.43
2019-01-23T07:28:49.308Z,45.60
2019-01-23T07:31:17.529Z,51.40
2019-01-23T07:33:45.936Z,48.92
2019-01-23T07:36:33.672Z,46.95
2019-01-23T07:39:02.395Z,48.45
2019-01-23T07:41:30.798Z,50.48
2019-01-23T07:43:59.457Z,48.60
2019-01-23T07:46:27.870Z,45.40
2019-01-23T07:48:56.268Z,47.17
2019-01-23T07:51:24.682Z,43.05
2019-01-23T07:53:53.079Z,42.85
2019-01-23T07:56:21.757Z,43.73
2019-01-23T07:58:50.167Z,45.08
2019-01-23T08:01:18.563Z,46.53
2019-01-23T08:03:46.972Z,44.88
2019-01-23T08:06:15.371Z,45.83
2019-01-23T08:08:43.824Z,45.08
2019-01-23T08:11:12.243Z,46.73
2019-01-23T08:13:40.960Z,46.08
2019-01-23T08:16:09.327Z,44.77
2019-01-23T08:18:37.720Z,46.77
2019-01-23T08:21:06.131Z,49.23
2019-01-23T08:23:34.847Z,48.00
2019-01-23T08:26:03.266Z,46.80
2019-01-23T08:28:31.690Z,45.63
2019-01-23T08:31:00.074Z,45.23
2019-01-23T08:33:28.490Z,45.05
2019-01-23T08:35:56.960Z,45.55
2019-01-23T08:38:25.372Z,45.75
2019-01-23T08:40:53.776Z,44.40
2019-01-23T08:43:22.182Z,45.95
2019-01-23T08:45:50.584Z,46.42
2019-01-23T08:48:18.986Z,44.75
2019-01-23T08:50:47.396Z,46.48
2019-01-23T08:53:15.795Z,43.65
2019-01-23T08:55:44.193Z,42.88
2019-01-23T08:58:31.940Z,41.42
2019-01-23T09:01:00.354Z,47.33
2019-01-23T09:03:28.746Z,43.42
2019-01-23T09:05:57.456Z,41.85
2019-01-23T09:08:25.864Z,41.73
2019-01-23T09:10:54.257Z,41.20
2019-01-23T09:13:22.772Z,44.00
2019-01-23T09:15:51.161Z,43.25
2019-01-23T09:18:19.570Z,42.90
2019-01-23T09:20:48.245Z,44.58
2019-01-23T09:23:16.713Z,42.45
2019-01-23T09:25:49.672Z,42.20
2019-01-23T09:28:15.238Z,46.28
2019-01-23T09:31:22.262Z,43.63
2019-01-23T09:34:30.846Z,45.17
2019-01-23T09:37:39.402Z,46.55
2019-01-23T09:40:46.379Z,41.75
2019-01-23T09:43:54.982Z,44.50
2019-01-23T09:47:03.607Z,44.60
2019-01-23T09:50:11.902Z,43.48
2019-01-23T09:53:20.217Z,44.42
2019-01-23T09:55:48.613Z,42.38
2019-01-23T09:58:17.082Z,40.90
2019-01-23T10:00:45.754Z,41.35
2019-01-23T10:03:14.441Z,41.40
2019-01-23T10:05:42.854Z,41.80
2019-01-23T10:08:11.249Z,40.92
2019-01-23T10:10:39.657Z,43.35
2019-01-23T10:13:08.106Z,42.43
2019-01-23T10:16:16.423Z,41.48
2019-01-23T10:18:44.958Z,42.45
2019-01-23T10:21:32.995Z,41.23
2019-01-23T10:24:01.393Z,44.65
2019-01-23T10:26:29.812Z,43.13
2019-01-23T10:28:58.206Z,44.58
2019-01-23T10:31:26.602Z,43.20
2019-01-23T10:33:55.302Z,44.85
2019-01-23T10:36:23.706Z,41.30
2019-01-23T10:38:52.362Z,42.25
2019-01-23T10:41:20.753Z,43.00
2019-01-23T10:43:49.163Z,41.35
2019-01-23T10:46:17.612Z,41.45
2019-01-23T10:48:46.022Z,41.45
2019-01-23T10:51:14.412Z,40.75
2019-01-23T10:53:42.874Z,39.10
2019-01-23T10:56:30.614Z,41.92
2019-01-23T10:58:59.007Z,43.28
2019-01-23T11:01:27.416Z,40.33
2019-01-23T11:03:55.811Z,42.03
2019-01-23T11:06:24.224Z,43.10
2019-01-23T11:08:52.617Z,45.10
2019-01-23T11:11:21.010Z,44.35
2019-01-23T11:13:49.738Z,44.67
2019-01-23T11:16:18.135Z,41.92
2019-01-23T11:18:46.547Z,42.65
2019-01-23T11:21:14.941Z,43.85
2019-01-23T11:23:43.662Z,41.42
2019-01-23T11:26:12.136Z,44.10
2019-01-23T11:28:40.528Z,41.42
2019-01-23T11:31:08.951Z,45.23
2019-01-23T11:33:37.698Z,44.58
2019-01-23T11:36:06.233Z,41.45
2019-01-23T11:38:34.621Z,43.40
2019-01-23T11:41:03.151Z,41.98
2019-01-23T11:43:31.547Z,43.35
2019-01-23T11:46:00.005Z,43.48
2019-01-23T11:48:28.418Z,44.40
2019-01-23T11:50:56.800Z,43.13
2019-01-23T11:53:25.190Z,43.15
2019-01-23T11:55:53.916Z,43.10
2019-01-23T11:58:22.305Z,44.53
2019-01-23T12:00:50.980Z,45.52
2019-01-23T12:03:21.078Z,46.28
2019-01-23T12:05:49.782Z,44.15
2019-01-23T12:08:18.176Z,46.42
2019-01-23T12:10:46.953Z,49.38
2019-01-23T12:13:15.376Z,46.30
2019-01-23T12:15:43.778Z,47.67
2019-01-23T12:18:12.175Z,45.58
2019-01-23T12:20:40.882Z,46.15
2019-01-23T12:23:09.280Z,43.10
2019-01-23T12:25:37.762Z,43.25
2019-01-23T12:28:06.154Z,47.13
2019-01-23T12:31:14.697Z,44.95
2019-01-23T12:33:43.421Z,41.77
2019-01-23T12:36:11.830Z,47.00
2019-01-23T12:38:40.489Z,43.40
2019-01-23T12:41:08.884Z,42.90
2019-01-23T12:43:37.437Z,43.02
2019-01-23T12:46:06.133Z,44.95
2019-01-23T12:48:34.551Z,43.17
2019-01-23T12:51:02.932Z,44.23
2019-01-23T12:53:31.680Z,42.85
2019-01-23T12:56:00.083Z,44.18
2019-01-23T12:58:28.475Z,39.75
2019-01-23T13:00:57.127Z,40.90
2019-01-23T13:03:25.519Z,44.55
2019-01-23T13:05:53.926Z,42.33
2019-01-23T13:08:22.319Z,45.38
2019-01-23T13:10:50.994Z,41.40
2019-01-23T13:13:19.398Z,44.95
2019-01-23T13:15:47.842Z,42.35
2019-01-23T13:18:16.494Z,45.35
2019-01-23T13:20:45.282Z,42.70
2019-01-23T13:23:19.662Z,43.70
2019-01-23T13:25:44.164Z,40.98
2019-01-23T13:28:12.563Z,43.78
2019-01-23T13:30:40.974Z,42.58
2019-01-23T13:33:09.370Z,42.43
2019-01-23T13:36:17.679Z,43.10
2019-01-23T13:38:46.069Z,42.48
2019-01-23T13:41:14.555Z,42.55
2019-01-23T13:43:42.950Z,43.30
2019-01-23T13:46:11.665Z,43.90
2019-01-23T13:48:40.081Z,42.55
2019-01-23T13:51:08.472Z,42.50
2019-01-23T13:53:36.882Z,41.13
2019-01-23T13:56:05.411Z,43.17
2019-01-23T13:58:33.805Z,43.02
2019-01-23T14:01:02.285Z,39.00
2019-01-23T14:03:30.684Z,39.70
2019-01-23T14:05:59.085Z,42.03
2019-01-23T14:08:28.506Z,42.35
2019-01-23T14:10:57.597Z,42.73
2019-01-23T14:13:26.001Z,41.88
2019-01-23T14:15:54.394Z,41.05
2019-01-23T14:18:22.802Z,41.68
2019-01-23T14:20:51.199Z,42.27
2019-01-23T14:23:20.792Z,41.37
2019-01-23T14:25:49.730Z,41.83
2019-01-23T14:28:18.119Z,40.10
2019-01-23T14:30:46.524Z,41.55
2019-01-23T14:33:15.156Z,38.60
2019-01-23T14:35:43.570Z,40.65
2019-01-23T14:38:12.105Z,42.08
2019-01-23T14:40:40.571Z,41.40
2019-01-23T14:43:09.049Z,43.42
2019-01-23T14:45:37.442Z,41.63
2019-01-23T14:48:45.755Z,40.88
2019-01-23T14:51:14.154Z,41.50
2019-01-23T14:53:42.541Z,39.38
2019-01-23T14:56:11.018Z,39.75
2019-01-23T14:58:39.705Z,41.40
2019-01-23T15:01:08.118Z,40.73
2019-01-23T15:03:36.512Z,40.78
2019-01-23T15:06:05.042Z,35.68
2019-01-23T15:08:33.445Z,38.33
2019-01-23T15:11:02.118Z,42.30
2019-01-23T15:13:49.863Z,39.98
2019-01-23T15:16:18.253Z,40.45
2019-01-23T15:18:46.921Z,38.23
2019-01-23T15:21:15.331Z,38.55
2019-01-23T15:23:44.037Z,38.38
2019-01-23T15:26:13.861Z,38.83
2019-01-23T15:28:42.253Z,39.85
2019-01-23T15:31:10.651Z,38.05
2019-01-23T15:33:39.056Z,38.02
2019-01-23T15:36:07.710Z,39.70
2019-01-23T15:38:36.124Z,37.70
2019-01-23T15:41:44.422Z,37.58
2019-01-23T15:44:12.833Z,40.38
2019-01-23T15:46:41.233Z,36.30
2019-01-23T15:49:09.689Z,39.40
2019-01-23T15:51:38.430Z,39.23
2019-01-23T15:54:06.825Z,36.25
2019-01-23T15:56:35.242Z,36.88
2019-01-23T15:59:03.905Z,35.78
2019-01-23T16:01:32.298Z,36.63
2019-01-23T16:04:00.713Z,36.75
2019-01-23T16:06:29.868Z,37.85
2019-01-23T16:09:19.207Z,37.55
2019-01-23T16:11:47.670Z,35.45
2019-01-23T16:14:16.381Z,36.23
2019-01-23T16:16:44.787Z,37.65
2019-01-23T16:19:13.178Z,38.50
2019-01-23T16:21:45.798Z,39.20
2019-01-23T16:24:12.347Z,39.27
2019-01-23T16:26:41.026Z,40.75
2019-01-23T16:29:09.523Z,44.55
2019-01-23T16:31:38.195Z,44.40
2019-01-23T16:34:06.602Z,41.83
2019-01-23T16:36:35.259Z,43.80
2019-01-23T16:41:58.946Z,43.95
2019-01-23T16:44:27.634Z,44.58
2019-01-23T16:46:56.050Z,42.23
2019-01-23T16:49:24.445Z,44.73
2019-01-23T16:51:53.180Z,44.67
2019-01-23T16:54:21.581Z,43.00
2019-01-23T16:56:49.980Z,42.67
2019-01-23T16:59:18.388Z,46.00
2019-01-23T17:01:46.783Z,45.58
2019-01-23T17:04:15.189Z,40.60
2019-01-23T17:06:43.590Z,46.55
2019-01-23T17:09:12.114Z,46.45
2019-01-23T17:11:40.527Z,43.02
2019-01-23T17:14:08.996Z,43.52
2019-01-23T17:16:37.385Z,44.38
2019-01-23T17:19:05.791Z,44.20
2019-01-23T17:21:34.185Z,43.58
2019-01-23T17:24:22.183Z,47.83
2019-01-23T17:26:50.859Z,47.70
2019-01-23T17:29:19.260Z,47.73
2019-01-23T17:31:47.694Z,44.40
2019-01-23T17:34:16.087Z,45.28
2019-01-23T17:39:39.635Z,49.70
2019-01-23T17:42:08.030Z,47.17
2019-01-23T17:44:36.447Z,50.17
2019-01-23T17:47:44.760Z,49.35
2019-01-23T17:50:53.084Z,50.73
2019-01-23T17:53:21.486Z,54.25
2019-01-23T17:55:50.140Z,48.85
2019-01-23T17:58:26.272Z,50.23
2019-01-23T18:03:34.131Z,50.98
2019-01-23T18:06:02.599Z,49.53
2019-01-23T18:08:31.010Z,52.90
2019-01-23T18:10:59.408Z,52.20
2019-01-23T18:13:27.876Z,52.75
2019-01-23T18:16:36.193Z,49.73
2019-01-23T18:19:44.503Z,50.05
2019-01-23T18:22:14.456Z,51.60
2019-01-23T18:24:43.102Z,52.85
2019-01-23T18:30:00.661Z,48.45
2019-01-23T18:32:29.065Z,50.20
2019-01-23T18:35:36.369Z,49.50
2019-01-23T18:38:44.815Z,48.50
2019-01-23T18:41:53.100Z,48.80
2019-01-23T18:45:01.480Z,45.95
2019-01-23T18:48:10.012Z,45.23
2019-01-23T18:51:18.632Z,50.85
2019-01-23T18:53:47.359Z,45.50
2019-01-23T18:56:16.006Z,44.98
2019-01-23T18:58:44.401Z,48.60
2019-01-23T19:01:12.969Z,48.28
2019-01-23T19:03:41.370Z,49.73
2019-01-23T19:06:09.841Z,47.55
2019-01-23T19:08:38.250Z,45.20
2019-01-23T19:11:06.716Z,48.20
2019-01-23T19:13:35.128Z,46.45
2019-01-23T19:16:03.658Z,47.25
2019-01-23T19:18:32.374Z,44.70
2019-01-23T19:21:00.783Z,46.90
2019-01-23T19:23:29.382Z,46.73
2019-01-23T19:25:58.036Z,46.65
2019-01-23T19:28:26.435Z,47.62
2019-01-23T19:30:54.844Z,48.20
2019-01-23T19:33:23.396Z,47.50
2019-01-23T19:35:51.796Z,47.38
2019-01-23T19:38:20.211Z,48.20
2019-01-23T19:40:48.912Z,47.08
2019-01-23T19:43:17.556Z,49.48
2019-01-23T19:45:46.031Z,45.38
2019-01-23T19:48:14.527Z,51.20
2019-01-23T19:50:43.051Z,48.98
2019-01-23T19:53:11.728Z,49.98
2019-01-23T19:55:40.516Z,47.10
2019-01-23T19:58:08.958Z,47.80
2019-01-23T20:00:37.683Z,46.28
2019-01-23T20:03:06.224Z,49.18
2019-01-23T20:05:54.393Z,47.13
2019-01-23T20:08:22.814Z,47.40
2019-01-23T20:10:51.475Z,48.75
2019-01-23T20:13:20.200Z,49.55
2019-01-23T20:15:48.644Z,47.80
2019-01-23T20:18:17.044Z,45.55
2019-01-23T20:20:45.457Z,48.23
2019-01-23T20:23:13.855Z,47.48
2019-01-23T20:25:42.568Z,46.35
2019-01-23T20:28:11.110Z,46.95
2019-01-23T20:30:39.501Z,45.70
2019-01-23T20:33:07.923Z,47.40
2019-01-23T20:35:36.319Z,44.42
2019-01-23T20:38:44.641Z,47.05
2019-01-23T20:41:13.039Z,45.43
2019-01-23T20:43:41.435Z,50.03
2019-01-23T20:46:09.849Z,47.20
2019-01-23T20:48:38.247Z,48.23
2019-01-23T20:51:06.664Z,50.23
2019-01-23T20:53:35.083Z,49.10
2019-01-23T20:56:03.465Z,51.95
2019-01-23T20:58:31.870Z,57.70
2019-01-23T21:01:00.623Z,54.67
2019-01-23T21:03:34.884Z,58.63
2019-01-23T21:05:59.156Z,61.35
2019-01-23T21:08:27.806Z,58.08
2019-01-23T21:10:56.223Z,55.45
2019-01-23T21:13:43.974Z,62.38
2019-01-23T21:16:12.708Z,61.63
2019-01-23T21:18:41.171Z,61.53
2019-01-23T21:21:09.578Z,59.33
2019-01-23T21:23:37.979Z,61.60
2019-01-23T21:26:06.464Z,57.53
2019-01-23T21:28:34.863Z,59.67
2019-01-23T21:31:03.592Z,54.83
2019-01-23T21:33:32.059Z,56.00
2019-01-23T21:36:00.454Z,60.20
2019-01-23T21:38:29.139Z,57.00
2019-01-23T21:40:57.548Z,56.50
2019-01-23T21:43:26.189Z,55.33
2019-01-23T21:45:54.600Z,55.33
2019-01-23T21:48:22.998Z,58.92
2019-01-23T21:50:51.412Z,54.33
2019-01-23T21:53:19.812Z,52.43
2019-01-23T21:55:48.507Z,58.95
2019-01-23T21:58:17.154Z,61.75
2019-01-23T22:00:45.880Z,55.92
2019-01-23T22:03:14.466Z,59.93
2019-01-23T22:05:42.868Z,60.88
2019-01-23T22:08:11.275Z,56.90
2019-01-23T22:10:59.026Z,56.23
2019-01-23T22:13:27.729Z,57.80
2019-01-23T22:15:56.409Z,58.23
2019-01-23T22:18:24.807Z,61.37
2019-01-23T22:20:53.207Z,58.10
2019-01-23T22:23:21.622Z,58.65
2019-01-23T22:25:50.358Z,57.93
2019-01-23T22:28:38.111Z,58.42
2019-01-23T22:31:06.507Z,59.95
2019-01-23T22:33:35.250Z,62.15
2019-01-23T22:36:03.730Z,70.08
2019-01-23T22:38:32.369Z,68.40
2019-01-23T22:41:00.783Z,65.15
2019-01-23T22:43:29.184Z,63.23
2019-01-23T22:45:57.870Z,62.98
2019-01-23T22:48:26.561Z,61.05
2019-01-23T22:50:54.960Z,63.40
2019-01-23T22:53:23.374Z,60.67
2019-01-23T22:55:51.772Z,62.88
2019-01-23T22:58:20.177Z,64.25
2019-01-23T23:01:28.535Z,65.20
2019-01-23T23:04:02.946Z,65.08
2019-01-23T23:06:27.207Z,60.58
2019-01-23T23:08:55.613Z,62.78
2019-01-23T23:11:24.374Z,62.38
2019-01-23T23:13:52.791Z,67.55
2019-01-23T23:16:21.515Z,61.68
2019-01-23T23:18:49.932Z,68.17
2019-01-23T23:21:18.583Z,64.85
2019-01-23T23:23:46.983Z,64.65
2019-01-23T23:26:15.648Z,62.70
2019-01-23T23:28:44.051Z,66.77
2019-01-23T23:31:12.731Z,63.40
2019-01-23T23:33:41.399Z,65.83
2019-01-23T23:36:09.795Z,61.80
2019-01-23T23:38:38.208Z,70.05
2019-01-23T23:41:06.674Z,64.25
2019-01-23T23:43:35.088Z,72.85
2019-01-23T23:46:03.555Z,71.37
2019-01-23T23:48:31.950Z,68.25
2019-01-23T23:51:00.668Z,66.47
2019-01-23T23:53:29.067Z,74.22
2019-01-23T23:55:57.479Z,72.27
2019-01-23T23:58:25.875Z,78.70
